createdAt,value
2022-11-02T00:02:17.324Z,10.21
2022-11-02T00:04:44.846Z,10.10
2022-11-02T00:07:12.249Z,10.06
2022-11-02T00:09:39.780Z,9.99
2022-11-02T00:12:07.563Z,10.00
2022-11-02T00:14:35.111Z,9.94
2022-11-02T00:17:02.588Z,9.98
2022-11-02T00:19:30.609Z,9.98
2022-11-02T00:21:59.001Z,10.00
2022-11-02T00:24:26.489Z,10.03
2022-11-02T00:26:55.155Z,10.03
2022-11-02T00:29:24.420Z,10.04
2022-11-02T00:31:51.936Z,10.05
2022-11-02T00:34:19.624Z,10.01
2022-11-02T00:36:50.598Z,9.95
2022-11-02T00:39:20.609Z,9.92
2022-11-02T00:41:48.115Z,9.85
2022-11-02T00:44:15.597Z,9.81
2022-11-02T00:46:43.016Z,9.79
2022-11-02T00:49:10.467Z,9.75
2022-11-02T00:51:37.979Z,9.69
2022-11-02T00:54:05.587Z,9.68
2022-11-02T00:56:34.334Z,9.65
2022-11-02T00:59:04.394Z,9.61
2022-11-02T01:01:32.729Z,9.57
2022-11-02T01:04:00.347Z,9.54
2022-11-02T01:06:27.786Z,9.47
2022-11-02T01:08:55.251Z,9.40
2022-11-02T01:11:24.612Z,9.37
2022-11-02T01:13:52.472Z,9.32
2022-11-02T01:16:20.798Z,9.27
2022-11-02T01:18:55.158Z,9.21
2022-11-02T01:21:23.307Z,9.15
2022-11-02T01:23:50.907Z,9.12
2022-11-02T01:26:18.674Z,9.08
2022-11-02T01:28:46.150Z,9.08
2022-11-02T01:31:13.810Z,9.08
2022-11-02T01:33:45.927Z,9.09
2022-11-02T01:36:15.418Z,9.12
2022-11-02T01:38:42.973Z,9.12
2022-11-02T01:41:12.796Z,9.09
2022-11-02T01:43:49.319Z,9.01
2022-11-02T01:46:21.103Z,8.98
2022-11-02T01:48:55.904Z,8.95
2022-11-02T01:51:29.596Z,8.93
2022-11-02T01:54:02.869Z,8.90
2022-11-02T01:56:33.176Z,8.85
2022-11-02T01:59:06.746Z,8.86
2022-11-02T02:01:34.522Z,8.83
2022-11-02T02:04:02.944Z,8.78
2022-11-02T02:06:35.991Z,8.69
2022-11-02T02:09:07.496Z,8.66
2022-11-02T02:11:38.483Z,8.65
2022-11-02T02:14:24.896Z,8.62
2022-11-02T02:17:20.109Z,8.64
2022-11-02T02:20:02.289Z,8.66
2022-11-02T02:22:43.410Z,8.68
2022-11-02T02:25:23.288Z,8.70
2022-11-02T02:28:19.951Z,8.77
2022-11-02T02:30:57.872Z,8.88
2022-11-02T02:33:31.088Z,8.92
2022-11-02T02:36:16.147Z,8.91
2022-11-02T02:38:49.628Z,8.90
2022-11-02T02:41:47.126Z,8.81
2022-11-02T02:44:22.386Z,8.77
2022-11-02T02:47:01.646Z,8.80
2022-11-02T02:49:37.416Z,8.80
2022-11-02T02:52:06.069Z,8.76
2022-11-02T02:54:41.916Z,8.76
2022-11-02T02:57:13.900Z,8.71
2022-11-02T02:59:43.427Z,8.73
2022-11-02T03:02:36.364Z,8.75
2022-11-02T03:05:23.518Z,8.77
2022-11-02T03:07:51.563Z,8.77
2022-11-02T03:10:26.459Z,8.77
2022-11-02T03:13:04.777Z,8.72
2022-11-02T03:15:40.937Z,8.68
2022-11-02T03:18:28.644Z,8.73
2022-11-02T03:21:26.863Z,8.82
2022-11-02T03:24:06.153Z,8.80
2022-11-02T03:26:53.408Z,8.71
2022-11-02T03:29:29.108Z,8.64
2022-11-02T03:32:01.010Z,8.60
2022-11-02T03:34:35.468Z,8.65
2022-11-02T03:37:24.599Z,8.65
2022-11-02T03:40:03.598Z,8.58
2022-11-02T03:42:33.937Z,8.54
2022-11-02T03:45:09.475Z,8.55
2022-11-02T03:47:39.613Z,8.44
2022-11-02T03:50:13.968Z,8.38
2022-11-02T03:52:45.168Z,8.34
2022-11-02T03:55:22.845Z,8.30
2022-11-02T03:57:52.044Z,8.32
2022-11-02T04:00:26.487Z,8.30
2022-11-02T04:03:04.301Z,8.26
2022-11-02T04:05:39.204Z,8.15
2022-11-02T04:08:23.456Z,8.04
2022-11-02T04:11:13.272Z,8.05
2022-11-02T04:14:02.279Z,8.15
2022-11-02T04:16:34.804Z,8.23
2022-11-02T04:19:24.418Z,8.23
2022-11-02T04:22:12.509Z,8.28
2022-11-02T04:25:01.543Z,8.35
2022-11-02T04:27:30.168Z,8.31
2022-11-02T04:29:58.557Z,8.40
2022-11-02T04:32:47.395Z,8.44
2022-11-02T04:35:17.925Z,8.46
2022-11-02T04:38:05.465Z,8.48
2022-11-02T04:40:37.175Z,8.47
2022-11-02T04:43:05.981Z,8.47
2022-11-02T04:45:34.955Z,8.41
2022-11-02T04:48:05.819Z,8.34
2022-11-02T04:50:36.177Z,8.29
2022-11-02T04:53:06.067Z,8.29
2022-11-02T04:55:35.008Z,8.31
2022-11-02T04:58:02.733Z,8.38
2022-11-02T05:00:30.761Z,8.39
2022-11-02T05:02:58.888Z,8.48
2022-11-02T05:05:27.273Z,8.60
2022-11-02T05:07:58.600Z,8.59
2022-11-02T05:10:26.590Z,8.58
2022-11-02T05:12:59.002Z,8.57
2022-11-02T05:15:30.368Z,8.57
2022-11-02T05:17:59.575Z,8.55
2022-11-02T05:20:29.887Z,8.54
2022-11-02T05:22:58.438Z,8.51
2022-11-02T05:25:26.167Z,8.55
2022-11-02T05:27:53.658Z,8.58
2022-11-02T05:30:21.149Z,8.55
2022-11-02T05:32:49.068Z,8.58
2022-11-02T05:35:16.673Z,8.55
2022-11-02T05:37:45.407Z,8.46
2022-11-02T05:40:14.068Z,8.56
2022-11-02T05:42:41.613Z,8.50
2022-11-02T05:45:10.002Z,8.48
2022-11-02T05:47:37.488Z,8.55
2022-11-02T05:50:05.357Z,8.53
2022-11-02T05:52:32.780Z,8.57
2022-11-02T05:55:00.128Z,8.67
2022-11-02T05:57:27.563Z,8.73
2022-11-02T05:59:55.041Z,9.06
2022-11-02T06:02:24.763Z,9.10
2022-11-02T06:04:53.158Z,8.96
2022-11-02T06:07:20.683Z,8.90
2022-11-02T06:09:48.188Z,8.87
2022-11-02T06:12:15.603Z,8.89
2022-11-02T06:14:43.110Z,8.89
2022-11-02T06:17:10.590Z,8.86
2022-11-02T06:19:38.082Z,8.96
2022-11-02T06:22:05.588Z,9.10
2022-11-02T06:24:33.056Z,9.29
2022-11-02T06:27:00.537Z,9.51
2022-11-02T06:29:28.018Z,9.86
2022-11-02T06:31:55.404Z,10.12
2022-11-02T06:34:22.913Z,10.55
2022-11-02T06:36:50.550Z,10.58
2022-11-02T06:39:17.874Z,11.01
2022-11-02T06:41:45.328Z,11.32
2022-11-02T06:44:12.797Z,11.47
2022-11-02T06:46:40.207Z,11.73
2022-11-02T06:49:07.760Z,12.14
2022-11-02T06:51:35.217Z,11.95
2022-11-02T06:54:08.299Z,12.15
2022-11-02T06:56:36.293Z,12.58
2022-11-02T06:59:03.738Z,12.57
2022-11-02T07:01:31.318Z,12.98
2022-11-02T07:03:58.876Z,13.33
2022-11-02T07:06:26.383Z,13.41
2022-11-02T07:08:55.118Z,13.35
2022-11-02T07:11:23.453Z,13.26
2022-11-02T07:13:50.856Z,13.35
2022-11-02T07:16:18.426Z,12.96
2022-11-02T07:18:45.904Z,12.48
2022-11-02T07:21:13.448Z,12.00
2022-11-02T07:23:40.910Z,11.83
2022-11-02T07:26:08.361Z,11.63
2022-11-02T07:28:38.386Z,11.81
2022-11-02T07:31:06.208Z,12.29
2022-11-02T07:33:33.634Z,12.63
2022-11-02T07:36:03.595Z,12.96
2022-11-02T07:38:31.433Z,12.98
2022-11-02T07:40:59.137Z,13.25
2022-11-02T07:43:26.618Z,13.70
2022-11-02T07:46:06.198Z,14.06
2022-11-02T07:48:33.738Z,14.42
2022-11-02T07:51:01.173Z,14.68
2022-11-02T07:53:28.637Z,14.83
2022-11-02T07:55:56.284Z,14.96
2022-11-02T07:58:23.813Z,15.10
2022-11-02T08:00:53.844Z,15.30
2022-11-02T08:03:24.993Z,15.41
2022-11-02T08:05:52.556Z,15.70
2022-11-02T08:08:22.159Z,15.70
2022-11-02T08:10:52.286Z,15.69
2022-11-02T08:13:23.566Z,15.70
2022-11-02T08:15:52.416Z,15.47
2022-11-02T08:18:25.063Z,15.19
2022-11-02T08:20:56.374Z,15.21
2022-11-02T08:23:24.298Z,15.13
2022-11-02T08:25:53.388Z,15.46
2022-11-02T08:28:31.675Z,15.38
2022-11-02T08:30:59.628Z,15.13
2022-11-02T08:33:27.090Z,15.17
2022-11-02T08:35:54.619Z,15.16
2022-11-02T08:38:24.947Z,15.03
2022-11-02T08:40:52.558Z,15.01
2022-11-02T08:43:19.929Z,15.13
2022-11-02T08:46:13.880Z,15.12
2022-11-02T08:48:35.128Z,15.18
2022-11-02T08:51:03.014Z,15.20
2022-11-02T08:53:30.407Z,15.37
2022-11-02T08:55:59.202Z,15.35
2022-11-02T08:58:26.756Z,15.25
2022-11-02T09:00:54.674Z,15.40
2022-11-02T09:03:27.314Z,15.51
2022-11-02T09:06:00.389Z,15.55
2022-11-02T09:08:29.169Z,15.72
2022-11-02T09:11:03.160Z,15.72
2022-11-02T09:13:30.704Z,15.88
2022-11-02T09:15:59.675Z,15.97
2022-11-02T09:18:27.545Z,16.13
2022-11-02T09:20:55.159Z,16.08
2022-11-02T09:23:23.100Z,16.20
2022-11-02T09:25:50.902Z,16.19
2022-11-02T09:28:18.547Z,15.95
2022-11-02T09:30:46.016Z,15.85
2022-11-02T09:33:13.839Z,15.53
2022-11-02T09:35:44.877Z,15.48
2022-11-02T09:38:12.809Z,15.47
2022-11-02T09:40:44.744Z,15.34
2022-11-02T09:43:32.411Z,15.46
2022-11-02T09:46:28.697Z,15.50
2022-11-02T09:49:06.448Z,15.70
2022-11-02T09:51:37.509Z,15.64
2022-11-02T09:54:39.385Z,15.63
2022-11-02T09:57:12.028Z,15.63
2022-11-02T09:59:41.483Z,15.48
2022-11-02T10:02:39.315Z,15.22
2022-11-02T10:06:04.048Z,15.07
2022-11-02T10:08:56.387Z,14.80
2022-11-02T10:11:42.358Z,14.73
2022-11-02T10:14:15.935Z,14.52
2022-11-02T10:16:58.158Z,14.58
2022-11-02T10:19:30.260Z,14.59
2022-11-02T10:21:58.713Z,14.50
2022-11-02T10:24:45.435Z,14.65
2022-11-02T10:27:37.274Z,14.70
2022-11-02T10:30:07.022Z,14.82
2022-11-02T10:32:36.742Z,15.02
2022-11-02T10:35:31.282Z,14.95
2022-11-02T10:38:23.038Z,15.03
2022-11-02T10:41:06.767Z,15.00
2022-11-02T10:43:52.215Z,14.91
2022-11-02T10:46:33.862Z,14.78
2022-11-02T10:49:06.637Z,14.94
2022-11-02T10:51:34.177Z,14.97
2022-11-02T10:54:01.712Z,15.06
2022-11-02T10:56:33.555Z,15.19
2022-11-02T10:59:14.119Z,15.39
2022-11-02T11:02:07.108Z,15.38
2022-11-02T11:04:35.043Z,15.49
2022-11-02T11:07:08.054Z,15.56
2022-11-02T11:09:55.268Z,15.65
2022-11-02T11:12:34.334Z,15.75
2022-11-02T11:20:41.219Z,15.59
2022-11-02T11:23:15.752Z,15.66
2022-11-02T11:25:53.499Z,15.68
2022-11-02T11:28:22.629Z,15.57
2022-11-02T11:31:14.639Z,15.51
2022-11-02T11:33:56.458Z,15.24
2022-11-02T11:36:35.877Z,14.93
2022-11-02T11:39:08.103Z,14.76
2022-11-02T11:41:41.338Z,14.66
2022-11-02T11:44:14.758Z,14.36
2022-11-02T11:46:49.336Z,14.40
2022-11-02T11:49:35.920Z,14.61
2022-11-02T11:52:20.054Z,14.49
2022-11-02T11:58:59.821Z,14.98
2022-11-02T12:01:27.377Z,15.05
2022-11-02T12:04:02.510Z,14.97
2022-11-02T12:06:57.668Z,14.82
2022-11-02T12:09:36.889Z,14.39
2022-11-02T12:12:23.110Z,14.30
2022-11-02T12:15:14.100Z,14.21
2022-11-02T12:18:19.325Z,14.15
2022-11-02T12:21:22.815Z,14.15
2022-11-02T12:24:01.646Z,14.15
2022-11-02T12:26:42.530Z,14.18
2022-11-02T12:29:40.959Z,14.29
2022-11-02T12:32:18.389Z,14.63
2022-11-02T12:34:57.800Z,14.87
2022-11-02T12:37:53.807Z,15.27
2022-11-02T12:40:30.286Z,15.53
2022-11-02T12:43:15.748Z,15.52
2022-11-02T12:46:13.841Z,15.31
2022-11-02T12:49:02.529Z,15.07
2022-11-02T12:51:37.509Z,14.48
2022-11-02T12:54:11.474Z,14.29
2022-11-02T12:56:49.389Z,14.00
2022-11-02T12:59:30.836Z,13.70
2022-11-02T13:02:11.472Z,13.54
2022-11-02T13:04:44.619Z,13.31
2022-11-02T13:07:15.521Z,13.43
2022-11-02T13:09:52.498Z,13.47
2022-11-02T13:12:23.867Z,13.43
2022-11-02T13:14:57.789Z,13.45
2022-11-02T13:17:42.118Z,13.47
2022-11-02T13:20:12.998Z,13.49
2022-11-02T13:22:43.302Z,13.52
2022-11-02T13:25:13.955Z,13.51
2022-11-02T13:27:50.659Z,13.42
2022-11-02T13:30:18.963Z,13.43
2022-11-02T13:33:10.210Z,13.46
2022-11-02T13:35:43.595Z,13.42
2022-11-02T13:38:29.682Z,13.39
2022-11-02T13:41:24.678Z,13.35
2022-11-02T13:44:27.547Z,13.27
2022-11-02T13:47:09.310Z,13.25
2022-11-02T13:49:41.460Z,13.20
2022-11-02T13:52:15.049Z,13.22
2022-11-02T13:57:36.705Z,13.26
2022-11-02T14:00:08.409Z,13.39
2022-11-02T14:02:42.629Z,13.44
2022-11-02T14:05:41.606Z,13.55
2022-11-02T14:08:17.649Z,13.43
2022-11-02T14:11:03.506Z,13.26
2022-11-02T14:13:54.413Z,13.13
2022-11-02T14:16:40.735Z,13.00
2022-11-02T14:19:20.962Z,12.94
2022-11-02T14:21:51.362Z,12.90
2022-11-02T14:24:34.588Z,12.84
2022-11-02T14:27:12.214Z,12.76
2022-11-02T14:29:42.707Z,12.68
2022-11-02T14:32:26.826Z,12.64
2022-11-02T14:35:22.421Z,12.60
2022-11-02T14:38:17.688Z,12.56
2022-11-02T14:41:16.695Z,12.39
2022-11-02T14:43:53.163Z,12.28
2022-11-02T14:46:38.627Z,12.28
2022-11-02T14:49:15.848Z,12.24
2022-11-02T14:51:45.811Z,12.17
2022-11-02T14:54:19.048Z,12.15
2022-11-02T14:56:49.332Z,12.07
2022-11-02T14:59:25.619Z,12.04
2022-11-02T15:02:22.073Z,11.94
2022-11-02T15:05:01.758Z,11.85
2022-11-02T15:08:09.127Z,11.72
2022-11-02T15:10:40.957Z,11.57
2022-11-02T15:13:20.851Z,11.53
2022-11-02T15:15:51.209Z,11.45
2022-11-02T15:18:30.406Z,11.40
2022-11-02T15:21:13.052Z,11.30
2022-11-02T15:23:46.968Z,11.22
2022-11-02T15:26:20.049Z,11.15
2022-11-02T15:28:51.040Z,11.08
2022-11-02T15:31:25.914Z,10.98
2022-11-02T15:33:58.165Z,10.88
2022-11-02T15:36:31.594Z,10.83
2022-11-02T15:39:03.447Z,10.77
2022-11-02T15:41:39.871Z,10.67
2022-11-02T15:44:44.961Z,10.55
2022-11-02T15:47:29.471Z,10.42
2022-11-02T15:50:15.349Z,10.35
2022-11-02T15:53:08.712Z,10.26
2022-11-02T15:55:47.620Z,10.23
2022-11-02T15:58:33.499Z,10.19
2022-11-02T16:01:16.269Z,10.14
2022-11-02T16:03:46.724Z,10.07
2022-11-02T16:06:15.058Z,9.98
2022-11-02T16:08:44.260Z,9.88
2022-11-02T16:11:17.613Z,9.80
2022-11-02T16:14:08.116Z,9.76
2022-11-02T16:16:46.928Z,9.67
2022-11-02T16:19:21.800Z,9.62
2022-11-02T16:21:50.338Z,9.56
2022-11-02T16:24:19.248Z,9.55
2022-11-02T16:26:48.698Z,9.50
2022-11-02T16:29:27.789Z,9.47
2022-11-02T16:31:55.509Z,9.38
2022-11-02T16:34:29.818Z,9.34
2022-11-02T16:36:58.348Z,9.28
2022-11-02T16:39:30.434Z,9.21
2022-11-02T16:41:59.504Z,9.16
2022-11-02T16:44:32.305Z,9.13
2022-11-02T16:47:16.260Z,9.07
2022-11-02T16:49:49.711Z,9.01
2022-11-02T16:52:17.190Z,8.99
2022-11-02T16:54:45.337Z,8.96
2022-11-02T16:57:12.796Z,8.93
2022-11-02T17:00:11.552Z,8.89
2022-11-02T17:02:41.617Z,8.88
2022-11-02T17:05:22.748Z,8.86
2022-11-02T17:08:04.801Z,8.85
2022-11-02T17:10:36.343Z,8.84
2022-11-02T17:13:07.283Z,8.83
2022-11-02T17:15:37.535Z,8.81
2022-11-02T17:18:08.250Z,8.77
2022-11-02T17:20:38.517Z,8.77
2022-11-02T17:23:09.168Z,8.78
2022-11-02T17:25:39.383Z,8.76
2022-11-02T17:28:35.019Z,8.75
2022-11-02T17:31:02.671Z,8.73
2022-11-02T17:33:32.924Z,8.71
2022-11-02T17:36:06.818Z,8.67
2022-11-02T17:38:34.298Z,8.66
2022-11-02T17:41:02.175Z,8.64
2022-11-02T17:43:29.769Z,8.60
2022-11-02T17:46:00.968Z,8.58
2022-11-02T17:48:31.385Z,8.59
2022-11-02T17:51:02.227Z,8.57
2022-11-02T17:53:29.798Z,8.59
2022-11-02T17:55:57.630Z,8.60
2022-11-02T17:58:25.203Z,8.56
2022-11-02T18:00:54.742Z,8.53
2022-11-02T18:03:25.393Z,8.50
2022-11-02T18:05:59.799Z,8.47
2022-11-02T18:08:28.335Z,8.46
2022-11-02T18:10:55.899Z,8.44
2022-11-02T18:13:24.357Z,8.42
2022-11-02T18:15:51.830Z,8.37
2022-11-02T18:18:19.374Z,8.35
2022-11-02T18:20:46.868Z,8.31
2022-11-02T18:23:16.829Z,8.29
2022-11-02T18:25:44.423Z,8.25
2022-11-02T18:28:11.990Z,8.22
2022-11-02T18:30:42.980Z,8.21
2022-11-02T18:33:13.415Z,8.19
2022-11-02T18:35:43.103Z,8.20
2022-11-02T18:38:10.818Z,8.24
2022-11-02T18:40:38.392Z,8.26
2022-11-02T18:43:06.181Z,8.24
2022-11-02T18:45:33.775Z,8.21
2022-11-02T18:48:01.222Z,8.16
2022-11-02T18:50:28.768Z,8.12
2022-11-02T18:52:56.144Z,8.05
2022-11-02T18:55:23.800Z,8.02
2022-11-02T18:57:51.186Z,8.02
2022-11-02T19:00:19.107Z,8.03
2022-11-02T19:02:46.647Z,7.99
2022-11-02T19:05:32.780Z,8.07
2022-11-02T19:08:19.505Z,8.08
2022-11-02T19:10:48.375Z,8.08
2022-11-02T19:13:16.127Z,8.08
2022-11-02T19:15:43.676Z,8.02
2022-11-02T19:18:11.397Z,7.98
2022-11-02T19:20:38.900Z,7.97
2022-11-02T19:23:06.740Z,7.99
2022-11-02T19:25:34.458Z,7.99
2022-11-02T19:28:04.661Z,7.96
2022-11-02T19:30:32.508Z,7.97
2022-11-02T19:33:00.020Z,7.93
2022-11-02T19:35:27.499Z,7.94
2022-11-02T19:37:57.881Z,7.89
2022-11-02T19:40:25.509Z,7.80
2022-11-02T19:42:52.997Z,7.77
2022-11-02T19:45:20.558Z,7.68
2022-11-02T19:47:48.588Z,7.63
2022-11-02T19:50:16.277Z,7.57
2022-11-02T19:52:46.383Z,7.53
2022-11-02T19:55:13.959Z,7.51
2022-11-02T19:57:41.387Z,7.47
2022-11-02T20:00:09.608Z,7.43
2022-11-02T20:02:37.244Z,7.42
2022-11-02T20:05:05.175Z,7.39
2022-11-02T20:07:32.627Z,7.39
2022-11-02T20:10:00.137Z,7.39
2022-11-02T20:12:27.570Z,7.37
2022-11-02T20:14:55.068Z,7.32
2022-11-02T20:17:32.082Z,7.24
2022-11-02T20:20:02.896Z,7.17
2022-11-02T20:22:30.398Z,7.16
2022-11-02T20:24:58.109Z,7.15
2022-11-02T20:27:25.619Z,7.16
2022-11-02T20:29:53.166Z,7.17
2022-11-02T20:32:22.533Z,7.17
2022-11-02T20:34:50.168Z,7.15
2022-11-02T20:37:17.607Z,7.13
2022-11-02T20:39:45.055Z,7.12
2022-11-02T20:42:12.511Z,7.12
2022-11-02T20:44:40.008Z,7.12
2022-11-02T20:47:07.418Z,7.12
2022-11-02T20:49:49.875Z,7.12
2022-11-02T20:52:18.908Z,7.14
2022-11-02T20:54:46.388Z,7.13
2022-11-02T20:57:13.926Z,7.10
2022-11-02T20:59:41.519Z,7.09
2022-11-02T21:02:12.559Z,7.06
2022-11-02T21:04:42.542Z,7.05
2022-11-02T21:07:11.455Z,7.06
2022-11-02T21:09:39.670Z,7.07
2022-11-02T21:12:33.553Z,7.10
2022-11-02T21:15:03.969Z,7.19
2022-11-02T21:17:36.137Z,7.25
2022-11-02T21:22:57.891Z,7.29
2022-11-02T21:25:27.662Z,7.23
2022-11-02T21:27:55.981Z,7.18
2022-11-02T21:30:25.866Z,7.17
2022-11-02T21:32:54.541Z,7.14
2022-11-02T21:35:23.973Z,7.11
2022-11-02T21:37:56.701Z,7.08
2022-11-02T21:40:24.802Z,7.03
2022-11-02T21:42:52.563Z,7.03
2022-11-02T21:45:25.192Z,7.03
2022-11-02T21:47:53.834Z,7.01
2022-11-02T21:50:22.133Z,7.00
2022-11-02T21:52:49.981Z,7.03
2022-11-02T21:55:17.712Z,7.03
2022-11-02T21:57:45.331Z,7.02
2022-11-02T22:00:13.432Z,7.02
2022-11-02T22:02:41.222Z,7.02
2022-11-02T22:05:08.889Z,7.01
2022-11-02T22:07:56.487Z,7.01
2022-11-02T22:10:24.152Z,6.98
2022-11-02T22:13:10.397Z,6.97
2022-11-02T22:15:38.580Z,6.93
2022-11-02T22:18:06.233Z,6.92
2022-11-02T22:20:33.873Z,6.89
2022-11-02T22:23:01.321Z,6.86
2022-11-02T22:25:29.068Z,6.86
2022-11-02T22:27:56.540Z,6.88
2022-11-02T22:30:24.738Z,6.88
2022-11-02T22:32:52.191Z,6.85
2022-11-02T22:35:19.790Z,6.84
2022-11-02T22:38:06.018Z,6.80
2022-11-02T22:40:33.601Z,6.80
2022-11-02T22:43:01.122Z,6.79
2022-11-02T22:45:28.611Z,6.79
2022-11-02T22:47:56.100Z,6.79
2022-11-02T22:50:26.739Z,6.75
2022-11-02T22:52:55.471Z,6.74
2022-11-02T22:55:22.941Z,6.70
2022-11-02T22:57:58.777Z,6.71
2022-11-02T23:00:27.542Z,6.74
2022-11-02T23:02:55.037Z,6.78
2022-11-02T23:05:22.528Z,6.82
2022-11-02T23:07:50.013Z,6.85
2022-11-02T23:10:36.280Z,6.88
2022-11-02T23:13:04.114Z,6.94
2022-11-02T23:15:31.987Z,6.99
2022-11-02T23:17:59.962Z,7.01
2022-11-02T23:20:27.482Z,6.90
2022-11-02T23:23:17.111Z,6.83
2022-11-02T23:25:44.790Z,6.80
2022-11-02T23:28:30.785Z,6.80
2022-11-02T23:31:17.107Z,6.81
2022-11-02T23:33:44.631Z,6.82
2022-11-02T23:36:13.324Z,6.82
2022-11-02T23:39:01.891Z,6.76
2022-11-02T23:41:31.364Z,6.77
2022-11-02T23:44:14.877Z,6.74
2022-11-02T23:46:44.550Z,6.74
2022-11-02T23:49:13.369Z,6.74
2022-11-02T23:51:59.590Z,6.73
2022-11-02T23:54:45.819Z,6.72
2022-11-02T23:57:13.721Z,6.69
2022-11-02T23:59:41.342Z,6.68
